Time;durP1;ratioP1;P1;durP2;ratioP2;P2;SDS_P1;SDS_P2;PMS_P1;PMS_P2;Temp;Humidity;BMP_temperature;BMP_pressure;BME280_temperature;BME280_humidity;BME280_pressure;Samples;Min_cycle;Max_cycle;Signal;HPM_P1;HPM_P2
2023/09/18 00:02:25;;;;;;;17.75;11.23;;;;;;;18.52;100.00;100666.78;5043715;28;20350;-70
2023/09/18 00:04:50;;;;;;;21.40;11.88;;;;;;;18.50;100.00;100641.81;5045958;28;20519;-70
2023/09/18 00:07:15;;;;;;;19.67;12.63;;;;;;;18.59;100.00;100636.16;5045322;28;20040;-71
2023/09/18 00:09:41;;;;;;;20.53;13.03;;;;;;;18.55;100.00;100628.47;5046890;28;20427;-71
2023/09/18 00:12:06;;;;;;;16.37;11.83;;;;;;;18.48;100.00;100619.59;5044201;28;20029;-70
2023/09/18 00:14:32;;;;;;;19.17;12.90;;;;;;;18.38;100.00;100611.13;5046206;28;20143;-71
2023/09/18 00:16:57;;;;;;;16.90;11.13;;;;;;;18.46;100.00;100610.88;5046226;28;20271;-71
2023/09/18 00:19:23;;;;;;;20.90;12.50;;;;;;;18.41;100.00;100605.28;5044892;28;20068;-70
2023/09/18 00:21:51;;;;;;;16.35;12.35;;;;;;;18.44;100.00;100614.81;5043170;28;20361;-71
2023/09/18 00:24:17;;;;;;;16.25;11.82;;;;;;;18.38;100.00;100608.44;5046365;28;20150;-70
2023/09/18 00:26:42;;;;;;;13.57;10.63;;;;;;;18.39;100.00;100601.16;5046401;28;20105;-70
2023/09/18 00:29:07;;;;;;;15.17;11.23;;;;;;;18.46;100.00;100586.53;5046120;28;20032;-71
2023/09/18 00:31:33;;;;;;;17.17;11.50;;;;;;;18.47;100.00;100581.94;5042188;28;20021;-71
2023/09/18 00:33:58;;;;;;;15.60;11.87;;;;;;;18.42;100.00;100579.91;5042042;28;20029;-70
2023/09/18 00:36:24;;;;;;;13.97;10.57;;;;;;;18.41;100.00;100580.97;5045854;28;20064;-70
2023/09/18 00:38:49;;;;;;;15.68;10.63;;;;;;;18.42;100.00;100571.78;5044666;28;20048;-71
2023/09/18 00:41:14;;;;;;;17.03;11.67;;;;;;;18.40;100.00;100564.94;5049462;28;20471;-71
2023/09/18 00:43:40;;;;;;;16.37;11.97;;;;;;;18.38;100.00;100573.28;5044597;28;20727;-71
2023/09/18 00:46:05;;;;;;;17.10;11.27;;;;;;;18.32;100.00;100555.25;5045720;28;20041;-70
2023/09/18 00:48:31;;;;;;;15.07;11.20;;;;;;;18.31;100.00;100561.72;5041220;28;20152;-70
2023/09/18 00:50:56;;;;;;;12.75;10.88;;;;;;;18.28;100.00;100562.13;5041965;28;20133;-70
2023/09/18 00:53:24;;;;;;;14.13;10.68;;;;;;;18.25;100.00;100566.09;5050099;28;20036;-71
2023/09/18 00:55:57;;;;;;;17.48;12.50;;;;;;;18.23;100.00;100553.84;5041045;28;20041;-70
2023/09/18 00:58:23;;;;;;;16.42;12.48;;;;;;;18.17;100.00;100554.69;5048000;28;20029;-70
2023/09/18 01:00:51;;;;;;;;;;;;;;;18.25;100.00;100555.28;5043847;28;20029;-71
2023/09/18 01:03:18;;;;;;;15.52;12.10;;;;;;;18.20;100.00;100548.88;5049209;28;20007;-71
2023/09/18 01:05:45;;;;;;;18.80;11.80;;;;;;;18.25;100.00;100551.75;5043455;28;20053;-71
2023/09/18 01:08:10;;;;;;;16.25;10.93;;;;;;;18.20;100.00;100540.78;5043967;28;20021;-71
2023/09/18 01:11:03;;;;;;;18.33;12.05;;;;;;;18.13;100.00;100538.13;5041768;28;20025;-71
2023/09/18 01:13:37;;;;;;;14.10;11.25;;;;;;;18.17;100.00;100543.91;5036026;28;20037;-70
2023/09/18 01:16:14;;;;;;;15.25;10.18;;;;;;;18.21;100.00;100543.25;5042747;28;20037;-71
2023/09/18 01:18:51;;;;;;;19.90;13.07;;;;;;;17.99;100.00;100537.34;5044128;28;20037;-71
2023/09/18 01:21:23;;;;;;;15.82;12.27;;;;;;;18.05;100.00;100552.72;5035204;28;20033;-71
2023/09/18 01:23:49;;;;;;;14.23;10.80;;;;;;;18.16;100.00;100563.88;5043277;28;20037;-71
2023/09/18 01:26:14;;;;;;;18.08;12.25;;;;;;;18.08;100.00;100559.56;5041570;28;20055;-71
2023/09/18 01:28:40;;;;;;;14.40;11.20;;;;;;;18.12;100.00;100563.47;5044883;28;20029;-70
2023/09/18 01:31:05;;;;;;;14.90;11.32;;;;;;;18.11;100.00;100551.00;5043978;28;20644;-70
2023/09/18 01:33:33;;;;;;;14.60;11.10;;;;;;;18.04;100.00;100544.81;5037107;28;20766;-71
2023/09/18 01:36:00;;;;;;;15.98;11.02;;;;;;;17.96;100.00;100556.72;5042210;28;20376;-70
2023/09/18 01:38:26;;;;;;;;;;;;;;;17.88;100.00;100557.75;5041809;28;20033;-70
2023/09/18 01:40:53;;;;;;;17.98;11.38;;;;;;;18.04;100.00;100563.72;5040525;28;19958;-70
2023/09/18 01:43:18;;;;;;;15.65;11.75;;;;;;;17.97;100.00;100562.94;5043740;28;20037;-70
2023/09/18 01:45:44;;;;;;;13.87;11.53;;;;;;;17.92;100.00;100552.78;5043304;28;20021;-70
2023/09/18 01:48:09;;;;;;;19.25;12.10;;;;;;;17.91;100.00;100551.09;5044148;28;20029;-70
2023/09/18 01:50:36;;;;;;;17.20;11.10;;;;;;;17.91;100.00;100534.91;5049814;28;20557;-70
2023/09/18 01:53:02;;;;;;;12.35;11.05;;;;;;;17.89;100.00;100554.03;5042388;28;20055;-70
2023/09/18 01:55:29;;;;;;;14.00;10.97;;;;;;;17.90;100.00;100544.06;5041778;28;20056;-71
2023/09/18 01:57:55;;;;;;;15.25;11.05;;;;;;;17.97;100.00;100547.53;5043161;28;20067;-71
2023/09/18 02:00:21;;;;;;;13.73;11.07;;;;;;;17.98;100.00;100527.63;5043340;28;20391;-70
2023/09/18 02:02:46;;;;;;;17.13;11.40;;;;;;;17.97;100.00;100506.22;5043288;28;20024;-70
2023/09/18 02:05:11;;;;;;;15.73;12.33;;;;;;;17.95;100.00;100502.91;5042905;28;20094;-70
2023/09/18 02:07:37;;;;;;;14.10;10.67;;;;;;;17.92;100.00;100501.47;5043072;28;20064;-70
2023/09/18 02:10:03;;;;;;;12.93;10.93;;;;;;;17.95;100.00;100487.50;5043429;28;20108;-71
2023/09/18 02:12:28;;;;;;;14.70;12.82;;;;;;;17.89;100.00;100480.31;5043194;28;20051;-70
2023/09/18 02:14:53;;;;;;;15.13;10.67;;;;;;;17.83;100.00;100471.19;5041829;28;20041;-71
2023/09/18 02:17:20;;;;;;;13.10;11.43;;;;;;;17.82;100.00;100469.53;5041622;28;20029;-70
2023/09/18 02:19:46;;;;;;;15.52;11.15;;;;;;;17.86;100.00;100467.22;5044340;28;20035;-71
2023/09/18 02:22:11;;;;;;;13.17;11.37;;;;;;;17.82;100.00;100456.03;5042488;28;20033;-70
2023/09/18 02:24:36;;;;;;;16.07;11.27;;;;;;;17.87;100.00;100448.09;5040580;28;20033;-71
2023/09/18 02:27:06;;;;;;;13.70;10.90;;;;;;;17.83;100.00;100446.06;5039851;28;20471;-71
2023/09/18 02:29:31;;;;;;;13.48;10.57;;;;;;;17.83;100.00;100441.47;5042767;28;20112;-71
2023/09/18 02:31:56;;;;;;;15.37;12.40;;;;;;;17.84;100.00;100436.88;5043066;28;20511;-70
2023/09/18 02:34:22;;;;;;;14.13;11.50;;;;;;;17.80;100.00;100424.88;5042653;28;20037;-70
2023/09/18 02:36:47;;;;;;;14.17;12.30;;;;;;;17.89;100.00;100427.09;5046302;28;20035;-70
2023/09/18 02:39:13;;;;;;;17.73;12.33;;;;;;;17.76;100.00;100420.94;5046619;28;20476;-71
2023/09/18 02:41:38;;;;;;;14.03;11.20;;;;;;;17.78;100.00;100421.56;5045770;28;20120;-70
2023/09/18 02:44:04;;;;;;;12.27;10.50;;;;;;;17.83;100.00;100414.47;5045696;28;20291;-70
2023/09/18 02:46:30;;;;;;;13.95;10.07;;;;;;;17.84;100.00;100405.34;5053299;28;20399;-70
2023/09/18 02:48:55;;;;;;;14.38;11.30;;;;;;;17.78;100.00;100394.56;5045604;28;20037;-70
2023/09/18 02:51:22;;;;;;;12.87;10.80;;;;;;;17.79;100.00;100407.81;5030188;28;20028;-71
2023/09/18 02:53:47;;;;;;;14.23;11.32;;;;;;;17.95;100.00;100400.28;5046964;28;20024;-70
2023/09/18 02:56:13;;;;;;;12.43;10.53;;;;;;;17.83;100.00;100389.34;5045842;28;20033;-70
2023/09/18 02:58:39;;;;;;;14.10;11.65;;;;;;;17.92;100.00;100380.75;5045421;28;20492;-70
2023/09/18 03:01:06;;;;;;;16.85;12.10;;;;;;;17.84;100.00;100370.25;5043970;28;20047;-70
2023/09/18 03:03:33;;;;;;;16.27;11.40;;;;;;;17.72;100.00;100370.09;5043584;28;20087;-70
2023/09/18 03:06:05;;;;;;;13.55;11.05;;;;;;;17.78;100.00;100370.25;5040786;28;20480;-70
2023/09/18 03:08:32;;;;;;;14.40;12.07;;;;;;;17.79;100.00;100372.72;5045628;28;20036;-73
2023/09/18 03:10:58;;;;;;;15.68;11.10;;;;;;;17.70;100.00;100357.84;5046449;28;20021;-73
2023/09/18 03:13:24;;;;;;;14.02;10.38;;;;;;;17.69;100.00;100354.31;5046203;28;20032;-73
2023/09/18 03:15:49;;;;;;;16.08;10.02;;;;;;;17.84;100.00;100350.47;5042102;28;20040;-73
2023/09/18 03:18:15;;;;;;;14.75;11.13;;;;;;;17.87;100.00;100333.88;5044900;28;20047;-73
2023/09/18 03:20:42;;;;;;;13.65;10.82;;;;;;;17.83;100.00;100322.66;5046382;28;20403;-73
2023/09/18 03:23:07;;;;;;;13.27;10.70;;;;;;;17.81;100.00;100307.72;5045691;28;20068;-73
2023/09/18 03:25:32;;;;;;;13.00;11.13;;;;;;;17.85;100.00;100298.16;5045022;28;20398;-73
2023/09/18 03:27:58;;;;;;;14.82;10.75;;;;;;;17.77;100.00;100301.06;5046019;28;20399;-70
2023/09/18 03:30:28;;;;;;;14.57;11.15;;;;;;;17.79;100.00;100312.50;5044005;28;20090;-73
2023/09/18 03:32:54;;;;;;;15.00;12.63;;;;;;;17.67;100.00;100312.38;5045928;28;20108;-73
2023/09/18 03:35:21;;;;;;;17.85;11.35;;;;;;;17.69;100.00;100324.59;5044431;28;20449;-73
2023/09/18 03:37:49;;;;;;;18.73;11.27;;;;;;;17.63;100.00;100328.19;5044260;28;20025;-73
2023/09/18 03:40:16;;;;;;;15.85;11.90;;;;;;;17.67;100.00;100333.97;5057881;28;20037;-73
2023/09/18 03:42:41;;;;;;;15.90;11.30;;;;;;;17.75;100.00;100331.03;5045890;28;20051;-73
2023/09/18 03:45:08;;;;;;;16.10;11.40;;;;;;;17.76;100.00;100321.03;5044881;28;20029;-73
2023/09/18 03:47:35;;;;;;;13.75;11.20;;;;;;;17.70;100.00;100315.47;5044893;28;20686;-73
2023/09/18 03:50:04;;;;;;;12.48;10.65;;;;;;;17.70;100.00;100328.97;5044332;28;20127;-70
2023/09/18 03:52:29;;;;;;;14.38;10.68;;;;;;;17.73;100.00;100320.44;5053266;28;20037;-70
2023/09/18 03:54:55;;;;;;;12.87;11.17;;;;;;;17.66;100.00;100322.34;5044879;28;20020;-70
2023/09/18 03:57:20;;;;;;;15.77;12.70;;;;;;;17.55;100.00;100328.44;5045089;28;20048;-70
2023/09/18 03:59:46;;;;;;;12.93;10.87;;;;;;;17.47;100.00;100307.97;5045238;28;20017;-70
2023/09/18 04:02:11;;;;;;;15.40;11.75;;;;;;;17.42;100.00;100332.09;5045007;28;20440;-70
2023/09/18 04:04:37;;;;;;;15.67;11.87;;;;;;;17.50;100.00;100333.69;5045288;28;20025;-71
2023/09/18 04:07:05;;;;;;;17.20;12.37;;;;;;;17.47;100.00;100324.16;5044637;28;20056;-71
2023/09/18 04:09:31;;;;;;;14.05;10.85;;;;;;;17.46;100.00;100321.66;5029714;28;20024;-70
2023/09/18 04:11:57;;;;;;;17.33;12.20;;;;;;;17.41;100.00;100324.19;5045594;28;20029;-70
2023/09/18 04:14:23;;;;;;;14.05;12.05;;;;;;;17.43;100.00;100325.63;5044181;28;20487;-70
2023/09/18 04:16:48;;;;;;;16.23;11.93;;;;;;;17.38;100.00;100317.38;5046007;28;20075;-70
2023/09/18 04:19:14;;;;;;;17.13;11.10;;;;;;;17.38;100.00;100316.53;5056320;28;20047;-70
2023/09/18 04:21:39;;;;;;;13.43;11.97;;;;;;;17.39;100.00;100304.69;5045296;28;20115;-70
2023/09/18 04:24:04;;;;;;;16.53;12.40;;;;;;;17.44;100.00;100294.91;5044123;28;20029;-70
2023/09/18 04:26:30;;;;;;;17.13;12.25;;;;;;;17.38;100.00;100289.56;5043988;28;20036;-70
2023/09/18 04:28:57;;;;;;;13.45;11.68;;;;;;;17.44;100.00;100281.44;5044609;28;20075;-70
2023/09/18 04:31:23;;;;;;;15.77;12.45;;;;;;;17.47;100.00;100269.38;5044550;28;20028;-70
2023/09/18 04:33:49;;;;;;;19.52;12.18;;;;;;;17.51;100.00;100259.75;5041456;28;20025;-70
2023/09/18 04:36:15;;;;;;;14.18;11.40;;;;;;;17.40;100.00;100250.53;5039130;28;20151;-70
2023/09/18 04:38:40;;;;;;;16.35;11.77;;;;;;;17.45;100.00;100252.56;5027688;28;20055;-70
2023/09/18 04:41:10;;;;;;;15.07;11.82;;;;;;;17.44;100.00;100245.50;5045090;28;20033;-70
2023/09/18 04:43:38;;;;;;;15.65;11.85;;;;;;;17.47;100.00;100220.78;5044492;28;20221;-70
2023/09/18 04:46:04;;;;;;;14.38;10.57;;;;;;;17.63;100.00;100222.09;5045298;28;20067;-70
2023/09/18 04:48:31;;;;;;;13.35;10.30;;;;;;;17.61;100.00;100199.91;5043982;28;20064;-70
2023/09/18 04:50:57;;;;;;;11.98;10.75;;;;;;;17.59;100.00;100197.41;5044627;28;20479;-70
2023/09/18 04:53:24;;;;;;;15.98;11.25;;;;;;;17.53;100.00;100187.50;5043880;28;20487;-70
2023/09/18 04:55:50;;;;;;;14.93;11.27;;;;;;;17.49;100.00;100197.09;5044317;28;20021;-70
2023/09/18 04:58:16;;;;;;;16.77;11.30;;;;;;;17.51;100.00;100192.28;5045000;28;20290;-70
2023/09/18 05:00:41;;;;;;;16.42;12.38;;;;;;;17.37;100.00;100193.47;5050770;28;20555;-70
2023/09/18 05:03:09;;;;;;;13.57;10.57;;;;;;;17.41;100.00;100200.06;5044098;28;20112;-70
2023/09/18 05:05:35;;;;;;;12.35;10.68;;;;;;;17.33;100.00;100186.88;5043144;28;20069;-70
2023/09/18 05:08:07;;;;;;;13.23;10.93;;;;;;;17.39;100.00;100197.59;5043329;28;20029;-70
2023/09/18 05:10:33;;;;;;;12.23;10.88;;;;;;;17.42;100.00;100183.66;5044746;28;20029;-70
2023/09/18 05:12:58;;;;;;;;;;;;;;;17.34;100.00;100191.22;5045525;28;20071;-70
2023/09/18 05:15:31;;;;;;;15.43;11.50;;;;;;;17.37;100.00;100199.69;5044352;28;19913;-70
2023/09/18 05:17:57;;;;;;;17.45;13.20;;;;;;;17.38;100.00;100181.63;5044878;28;20033;-70
2023/09/18 05:20:28;;;;;;;13.85;11.82;;;;;;;17.45;100.00;100187.78;5036739;28;20053;-70
2023/09/18 05:22:54;;;;;;;12.57;10.82;;;;;;;17.47;100.00;100183.00;5039032;28;20543;-70
2023/09/18 05:25:21;;;;;;;16.85;10.55;;;;;;;17.44;100.00;100173.50;5042077;28;20468;-70
2023/09/18 05:27:48;;;;;;;17.65;11.02;;;;;;;17.44;100.00;100172.63;5040461;28;20389;-70
2023/09/18 05:30:21;;;;;;;17.17;11.50;;;;;;;17.45;100.00;100163.50;5041858;28;20555;-70
2023/09/18 05:32:47;;;;;;;16.00;11.82;;;;;;;17.49;100.00;100154.75;5041434;28;20041;-70
2023/09/18 05:35:13;;;;;;;18.30;12.68;;;;;;;17.57;100.00;100150.94;5044792;28;20024;-70
2023/09/18 05:37:39;;;;;;;13.85;10.85;;;;;;;17.37;100.00;100128.69;5044567;28;20040;-70
2023/09/18 05:40:09;;;;;;;16.73;10.55;;;;;;;17.54;100.00;100146.00;5045175;28;20067;-70
2023/09/18 05:42:36;;;;;;;14.18;11.10;;;;;;;17.51;100.00;100141.00;5044747;28;20041;-70
2023/09/18 05:45:01;;;;;;;15.07;12.25;;;;;;;17.71;100.00;100138.13;5044818;28;20021;-71
2023/09/18 05:47:27;;;;;;;12.23;10.60;;;;;;;17.92;100.00;100118.81;5041060;28;20036;-71
2023/09/18 05:49:52;;;;;;;12.87;10.27;;;;;;;17.90;100.00;100079.56;5029201;28;20039;-71
2023/09/18 05:52:18;;;;;;;13.20;10.13;;;;;;;18.11;100.00;100078.28;5037042;28;20079;-71
2023/09/18 05:54:43;;;;;;;13.33;11.00;;;;;;;18.28;100.00;100059.53;5043744;28;20029;-70
2023/09/18 05:57:08;;;;;;;16.60;10.40;;;;;;;18.29;100.00;100001.75;5044718;28;20033;-70
2023/09/18 05:59:34;;;;;;;13.67;10.07;;;;;;;18.54;100.00;100010.50;5036669;28;20491;-70
2023/09/18 06:01:59;;;;;;;12.03;8.93;;;;;;;18.97;100.00;99949.06;5045212;28;20373;-70
2023/09/18 06:04:24;;;;;;;13.13;9.57;;;;;;;19.13;100.00;99850.94;5044534;28;20029;-71
2023/09/18 06:06:51;;;;;;;11.80;9.87;;;;;;;18.77;100.00;99825.03;5044463;28;20048;-71
2023/09/18 06:09:16;;;;;;;13.55;9.45;;;;;;;18.59;100.00;99823.28;5044994;28;20291;-71
2023/09/18 06:11:42;;;;;;;10.38;9.18;;;;;;;18.15;100.00;99849.84;5040074;28;20033;-71
2023/09/18 06:14:07;;;;;;;10.23;8.90;;;;;;;18.31;100.00;99932.09;5042279;28;20028;-70
2023/09/18 06:16:33;;;;;;;12.07;8.70;;;;;;;18.39;100.00;99906.59;5045388;28;20041;-70
2023/09/18 06:19:00;;;;;;;11.20;8.85;;;;;;;18.64;100.00;99887.44;5048651;28;20036;-71
2023/09/18 06:21:25;;;;;;;10.70;9.05;;;;;;;18.86;100.00;99833.59;5040657;28;20035;-72
2023/09/18 06:23:51;;;;;;;12.13;9.10;;;;;;;19.21;100.00;99809.13;5045012;28;20408;-71
2023/09/18 06:26:17;;;;;;;8.77;7.65;;;;;;;19.26;100.00;99727.22;5037117;28;20044;-71
2023/09/18 06:28:43;;;;;;;11.38;8.45;;;;;;;19.02;100.00;99699.50;5044470;28;20031;-71
2023/09/18 06:31:08;;;;;;;11.30;8.63;;;;;;;18.98;100.00;99729.72;5039769;28;20041;-71
2023/09/18 06:33:33;;;;;;;9.27;8.20;;;;;;;19.16;100.00;99730.56;5041451;28;20060;-70
2023/09/18 06:35:59;;;;;;;7.93;6.90;;;;;;;19.28;100.00;99717.78;5044939;28;20031;-70
2023/09/18 06:38:24;;;;;;;12.30;9.95;;;;;;;19.26;100.00;99665.00;5047961;28;20067;-71
2023/09/18 06:40:50;;;;;;;10.40;7.47;;;;;;;19.64;100.00;99721.06;5044588;28;20029;-70
2023/09/18 06:43:15;;;;;;;9.88;8.45;;;;;;;20.07;100.00;99602.28;5037125;28;20431;-70
2023/09/18 06:45:41;;;;;;;14.57;8.10;;;;;;;20.21;100.00;99563.69;5041698;28;20045;-71
2023/09/18 06:48:06;;;;;;;11.67;8.30;;;;;;;20.87;100.00;99478.59;5048122;28;20056;-72
2023/09/18 06:50:31;;;;;;;9.20;8.30;;;;;;;21.28;100.00;99315.97;5048134;28;20445;-71
2023/09/18 06:52:57;;;;;;;8.97;7.43;;;;;;;21.12;100.00;99276.31;5039842;28;20107;-71
2023/09/18 06:55:22;;;;;;;13.13;8.90;;;;;;;21.36;100.00;99163.44;5040738;28;20052;-71
2023/09/18 06:57:48;;;;;;;11.50;7.27;;;;;;;21.83;100.00;99248.44;5044743;28;20071;-71
2023/09/18 07:00:20;;;;;;;11.00;7.10;;;;;;;21.56;100.00;99192.50;5038384;28;20059;-71
2023/09/18 07:02:46;;;;;;;10.65;7.60;;;;;;;20.77;100.00;99044.63;5038568;28;20695;-72
2023/09/18 07:05:12;;;;;;;12.27;7.72;;;;;;;20.47;100.00;99268.47;5043419;28;20534;-71
2023/09/18 07:07:37;;;;;;;7.68;6.80;;;;;;;20.60;100.00;99400.03;5044278;28;20028;-71
2023/09/18 07:10:03;;;;;;;9.40;7.17;;;;;;;20.42;100.00;99395.84;5047852;28;20051;-72
2023/09/18 07:12:29;;;;;;;10.88;7.10;;;;;;;20.74;100.00;99392.25;5047459;28;20487;-72
2023/09/18 07:14:54;;;;;;;10.37;7.47;;;;;;;21.04;100.00;99399.75;5046807;28;20040;-71
2023/09/18 07:17:19;;;;;;;9.47;8.07;;;;;;;20.85;100.00;99320.72;5038417;28;20279;-71
2023/09/18 07:19:45;;;;;;;9.87;6.43;;;;;;;20.88;100.00;99406.97;5038137;28;20037;-72
2023/09/18 07:22:10;;;;;;;12.20;7.33;;;;;;;20.94;100.00;99397.00;5038971;28;20033;-71
2023/09/18 07:24:35;;;;;;;12.27;7.23;;;;;;;21.25;100.00;99376.22;5040565;28;20052;-71
2023/09/18 07:27:01;;;;;;;9.60;6.70;;;;;;;21.73;100.00;99328.03;5040275;28;20032;-72
2023/09/18 07:29:27;;;;;;;;;;;;;;;21.29;100.00;99228.88;5035036;28;20038;-72
2023/09/18 07:31:52;;;;;;;7.55;6.78;;;;;;;20.67;100.00;99278.59;5041730;28;19912;-70
2023/09/18 07:34:18;;;;;;;16.47;7.10;;;;;;;20.96;100.00;99346.81;5041567;28;20028;-70
2023/09/18 07:36:46;;;;;;;15.03;7.70;;;;;;;21.21;100.00;99288.28;5041919;28;20119;-72
2023/09/18 07:39:12;;;;;;;7.57;5.93;;;;;;;21.11;100.00;99278.22;5044226;28;20061;-71
2023/09/18 07:41:37;;;;;;;7.53;6.10;;;;;;;21.24;100.00;99340.13;5041312;28;20491;-72
2023/09/18 07:44:03;;;;;;;7.55;6.57;;;;;;;21.60;100.00;99317.69;5041116;28;20651;-71
2023/09/18 07:46:28;;;;;;;9.38;7.03;;;;;;;21.36;100.00;99246.78;5040919;28;20552;-70
2023/09/18 07:48:54;;;;;;;11.30;6.80;;;;;;;21.80;100.00;99309.56;5038707;28;20029;-71
2023/09/18 07:51:19;;;;;;;12.10;7.03;;;;;;;21.70;100.00;99307.69;5044034;28;20515;-71
2023/09/18 07:53:45;;;;;;;7.20;6.30;;;;;;;21.78;100.00;99265.56;5038846;28;20029;-70
2023/09/18 07:56:10;;;;;;;10.77;6.78;;;;;;;21.89;100.00;99222.88;5043655;28;20509;-72
2023/09/18 07:58:38;;;;;;;10.63;6.10;;;;;;;22.42;100.00;99149.91;5042122;28;20044;-72
2023/09/18 08:01:08;;;;;;;8.43;6.63;;;;;;;22.46;100.00;99102.06;5043938;28;20021;-72
2023/09/18 08:03:34;;;;;;;6.82;5.78;;;;;;;22.25;100.00;98932.81;5038800;28;20041;-72
2023/09/18 08:05:59;;;;;;;6.93;6.13;;;;;;;22.51;100.00;99006.03;5036288;28;20510;-71
2023/09/18 08:08:25;;;;;;;7.27;5.47;;;;;;;23.26;100.00;99041.06;5040740;28;20283;-70
2023/09/18 08:10:52;;;;;;;8.70;5.93;;;;;;;22.76;100.00;98867.09;5037922;28;20058;-73
2023/09/18 08:13:17;;;;;;;;;;;;;;;23.28;100.00;99021.72;5044208;28;20075;-71
2023/09/18 08:15:43;;;;;;;6.82;5.85;;;;;;;23.40;100.00;98924.09;5041405;28;19916;-71
2023/09/18 08:18:10;;;;;;;9.15;6.65;;;;;;;23.72;100.00;98904.34;5040115;28;20047;-71
2023/09/18 08:20:36;;;;;;;6.00;5.40;;;;;;;23.11;100.00;98801.69;5039801;28;20029;-73
2023/09/18 08:23:05;;;;;;;6.05;5.45;;;;;;;23.65;100.00;98931.13;5039220;28;20120;-72
2023/09/18 08:25:30;;;;;;;11.68;5.88;;;;;;;24.18;100.00;98867.41;5038149;28;20037;-72
2023/09/18 08:27:56;;;;;;;7.00;4.68;;;;;;;23.97;100.00;98771.53;5038184;28;20075;-72
2023/09/18 08:30:21;;;;;;;4.97;4.57;;;;;;;24.25;100.00;98730.72;5040788;28;20037;-71
2023/09/18 08:32:47;;;;;;;6.00;5.40;;;;;;;23.66;100.00;98594.97;5040177;28;20033;-71
2023/09/18 08:35:13;;;;;;;5.82;5.07;;;;;;;23.71;100.00;98592.16;5042932;28;20479;-72
2023/09/18 08:37:42;;;;;;;8.50;5.28;;;;;;;23.87;100.00;98641.75;5034705;28;20499;-71
2023/09/18 08:40:13;;;;;;;7.57;5.15;;;;;;;23.83;100.00;98627.09;5039965;28;20308;-70
2023/09/18 08:42:46;;;;;;;7.25;5.40;;;;;;;24.01;100.00;98666.28;5038481;28;20029;-71
2023/09/18 08:45:21;;;;;;;6.18;4.10;;;;;;;24.08;100.00;98654.97;5029077;28;20033;-72
2023/09/18 08:47:47;;;;;;;5.13;4.30;;;;;;;23.90;100.00;98495.91;5040203;28;20388;-72
2023/09/18 08:50:13;;;;;;;4.97;4.50;;;;;;;24.03;100.00;98560.50;5038358;28;20039;-72
2023/09/18 08:52:39;;;;;;;7.20;4.55;;;;;;;23.56;100.00;98557.84;5039409;28;20036;-71
2023/09/18 08:55:06;;;;;;;5.03;4.57;;;;;;;23.71;100.00;98607.69;5039325;28;20534;-71
2023/09/18 08:57:32;;;;;;;7.13;4.78;;;;;;;23.41;100.00;98543.69;5039657;28;20033;-71
2023/09/18 09:00:01;;;;;;;8.38;4.75;;;;;;;23.35;100.00;98731.66;5038442;28;20514;-71
2023/09/18 09:02:26;;;;;;;5.75;4.90;;;;;;;23.26;100.00;98774.25;5040365;28;20037;-71
2023/09/18 09:04:52;;;;;;;7.67;5.50;;;;;;;23.23;100.00;98799.34;5037551;28;20464;-71
2023/09/18 09:07:17;;;;;;;7.07;4.65;;;;;;;23.24;100.00;98783.81;5040409;28;20037;-71
2023/09/18 09:09:43;;;;;;;5.75;5.13;;;;;;;23.29;100.00;98809.06;5038619;28;20029;-71
2023/09/18 09:12:08;;;;;;;6.95;4.68;;;;;;;23.07;100.00;98817.78;5039573;28;20531;-72
2023/09/18 09:14:34;;;;;;;5.97;4.90;;;;;;;22.97;100.00;98842.41;5037411;28;20036;-71
2023/09/18 09:16:59;;;;;;;5.37;4.80;;;;;;;22.80;100.00;98796.59;5035198;28;20113;-71
2023/09/18 09:19:29;;;;;;;6.82;5.15;;;;;;;22.95;100.00;98844.59;5040270;28;20435;-72
2023/09/18 09:21:55;;;;;;;6.30;4.97;;;;;;;22.92;100.00;98842.44;5037688;28;20041;-72
2023/09/18 09:24:41;;;;;;;8.13;5.05;;;;;;;23.05;100.00;98895.38;5040048;28;20168;-72
2023/09/18 09:27:08;;;;;;;8.43;5.03;;;;;;;23.24;100.00;98950.69;5033748;28;20045;-72
2023/09/18 09:29:34;;;;;;;6.50;4.55;;;;;;;23.13;100.00;98917.34;5039331;28;20055;-72
2023/09/18 09:32:29;;;;;;;7.65;5.13;;;;;;;23.01;100.00;98883.47;5038106;28;20037;-71
2023/09/18 09:34:58;;;;;;;8.20;5.28;;;;;;;23.04;100.00;98921.81;5035477;28;20052;-70
2023/09/18 09:37:31;;;;;;;6.25;4.68;;;;;;;22.84;100.00;98902.94;5038955;28;20029;-71
2023/09/18 09:39:56;;;;;;;5.70;4.93;;;;;;;23.09;100.00;98951.69;5037542;28;20056;-71
2023/09/18 09:42:24;;;;;;;7.78;4.47;;;;;;;23.23;100.00;98889.19;5040061;28;20559;-71
2023/09/18 09:45:16;;;;;;;6.95;5.05;;;;;;;23.34;100.00;98863.47;5036018;28;20033;-71
2023/09/18 09:47:41;;;;;;;6.25;4.20;;;;;;;23.06;100.00;98711.94;5042009;28;20443;-72
2023/09/18 09:50:13;;;;;;;7.93;4.95;;;;;;;23.52;100.00;98705.81;5040168;28;20033;-72
2023/09/18 09:52:50;;;;;;;7.40;3.80;;;;;;;23.47;100.00;98625.00;5038785;28;20504;-71
2023/09/18 09:55:29;;;;;;;9.82;4.53;;;;;;;23.62;100.00;98576.81;5033747;28;20052;-72
2023/09/18 09:57:59;;;;;;;6.45;4.68;;;;;;;23.72;100.00;98519.44;5040923;28;20037;-71
2023/09/18 10:00:43;;;;;;;12.50;4.70;;;;;;;23.78;100.00;98437.28;5036478;28;20033;-71
2023/09/18 10:03:17;;;;;;;4.45;4.05;;;;;;;23.41;100.00;98570.94;5038964;28;20059;-71
2023/09/18 10:05:45;;;;;;;6.45;4.88;;;;;;;23.24;100.00;98533.41;5038821;28;20407;-71
2023/09/18 10:08:22;;;;;;;6.25;4.57;;;;;;;23.25;100.00;98674.66;5039716;28;20033;-72
2023/09/18 10:10:51;;;;;;;5.20;4.72;;;;;;;23.82;100.00;98620.03;5037623;28;20116;-71
2023/09/18 10:13:20;;;;;;;9.95;5.30;;;;;;;23.44;100.00;98562.97;5035150;28;20095;-70
2023/09/18 10:15:48;;;;;;;6.90;5.18;;;;;;;23.41;100.00;98549.94;5040722;28;20052;-72
2023/09/18 10:18:42;;;;;;;5.95;5.35;;;;;;;23.44;100.00;98570.34;5039781;28;20029;-72
2023/09/18 10:21:38;;;;;;;7.00;5.20;;;;;;;23.48;100.00;98672.09;5039205;28;20032;-71
2023/09/18 10:24:25;;;;;;;7.88;5.38;;;;;;;23.28;100.00;98611.44;5034837;28;20109;-71
2023/09/18 10:26:56;;;;;;;9.90;5.70;;;;;;;23.02;100.00;98643.72;5036378;28;20040;-72
2023/09/18 10:29:23;;;;;;;8.38;4.95;;;;;;;23.28;100.00;98757.63;5035442;28;20416;-71
2023/09/18 10:31:50;;;;;;;9.98;5.40;;;;;;;23.15;100.00;98759.16;5037260;28;20583;-71
2023/09/18 10:34:18;;;;;;;6.22;4.75;;;;;;;23.22;100.00;98856.81;5039798;28;20031;-73
2023/09/18 10:36:46;;;;;;;7.07;5.18;;;;;;;23.25;100.00;98802.59;5040594;28;20241;-71
2023/09/18 10:39:12;;;;;;;8.05;4.85;;;;;;;23.30;100.00;98711.88;5034785;28;20136;-71
2023/09/18 10:41:39;;;;;;;6.75;4.75;;;;;;;23.61;100.00;98818.41;5039181;28;20116;-73
2023/09/18 10:44:04;;;;;;;5.03;4.53;;;;;;;23.24;100.00;98618.56;5038532;28;20070;-71
2023/09/18 10:46:30;;;;;;;7.05;5.00;;;;;;;23.74;100.00;98850.41;5039392;28;20068;-72
2023/09/18 10:48:56;;;;;;;6.18;4.75;;;;;;;23.43;100.00;98621.25;5039701;28;20472;-75
2023/09/18 10:51:23;;;;;;;;;;;;;;;23.77;100.00;98764.53;5036760;28;20036;-71
2023/09/18 10:53:49;;;;;;;7.13;4.80;;;;;;;23.93;100.00;98768.63;5037506;28;20003;-72
2023/09/18 10:56:16;;;;;;;5.35;4.35;;;;;;;23.50;100.00;98776.91;5035698;28;20144;-71
2023/09/18 10:58:42;;;;;;;6.13;4.25;;;;;;;23.33;100.00;98645.94;5042547;28;20067;-71
2023/09/18 11:01:11;;;;;;;6.95;5.03;;;;;;;22.89;100.00;98777.72;5042680;28;20030;-71
2023/09/18 11:03:40;;;;;;;8.50;5.53;;;;;;;22.90;100.00;98869.16;5042967;28;20040;-72
2023/09/18 11:06:12;;;;;;;12.05;5.40;;;;;;;23.04;100.00;98900.03;5042111;28;20029;-72
2023/09/18 11:08:49;;;;;;;8.43;4.85;;;;;;;23.39;100.00;98825.25;5042494;28;20080;-71
2023/09/18 11:11:20;;;;;;;6.75;4.70;;;;;;;23.73;100.00;98888.78;5033919;28;20661;-73
2023/09/18 11:13:53;;;;;;;9.00;4.72;;;;;;;23.88;100.00;98823.22;5041656;28;20028;-73